Lena, Wisconsin
Current Conditions -  °F | °C
As of 10:10 AM on Monday 24 Nov 2014 (Local Time) from KOCQ Reporting Station
Overcast Overcast  
Wind Chill: 40°   Ceiling: 1400
Heat Index: 43°   Visibility: 10mi
Dew Point: 42°   Wind: 5mph
Humidity: 99%   Direction: 310°NW
Pressure: 29.04"   Gusts: NA
Location:  44.95°N, 88.05°W
Report Text: KOCQ 241610Z AUTO 31004KT 10SM OVC014 06/06 A2904 RMK AO1 T00600058
Loading
Personal Weather Stations






























Interactive Weather Map New forecast layout! Learn more

10-Day Weather Forecast

Advertisements
Track Severe Weather on mobile